Time;durP1;ratioP1;P1;durP2;ratioP2;P2;SDS_P1;SDS_P2;PMS_P1;PMS_P2;Temp;Humidity;BMP_temperature;BMP_pressure;BME280_temperature;BME280_humidity;BME280_pressure;Samples;Min_cycle;Max_cycle;Signal;HPM_P1;HPM_P2
2021/05/23 00:00:36;;;;;;;3.52;2.22;;;;;;;17.25;100.00;98663.00;1812651;77;20838;-70
2021/05/23 00:03:17;;;;;;;8.10;2.22;;;;;;;17.23;100.00;98662.20;1828086;77;21448;-69
2021/05/23 00:05:54;;;;;;;4.37;2.10;;;;;;;17.19;100.00;98660.12;1809904;77;21419;-70
2021/05/23 00:08:25;;;;;;;4.03;2.15;;;;;;;17.15;100.00;98654.97;1835080;78;21043;-69
2021/05/23 00:11:02;;;;;;;6.28;2.37;;;;;;;17.08;100.00;98656.16;1819675;78;21405;-69
2021/05/23 00:13:40;;;;;;;5.92;2.17;;;;;;;17.08;100.00;98656.16;1796871;79;21515;-69
2021/05/23 00:16:21;;;;;;;4.08;2.22;;;;;;;17.04;100.00;98661.20;1809256;77;20937;-69
2021/05/23 00:18:59;;;;;;;5.53;2.37;;;;;;;17.01;100.00;98666.16;1822139;77;21368;-68
2021/05/23 00:21:31;;;;;;;3.90;2.30;;;;;;;16.99;100.00;98665.35;1827006;77;21403;-70
2021/05/23 00:24:06;;;;;;;3.70;2.25;;;;;;;16.96;100.00;98659.68;1816719;77;21456;-68
2021/05/23 00:26:43;;;;;;;5.75;2.08;;;;;;;16.95;100.00;98663.73;1844561;77;21369;-70
2021/05/23 00:29:17;;;;;;;5.40;2.02;;;;;;;16.94;100.00;98669.53;1849218;77;20949;-70
2021/05/23 00:31:56;;;;;;;;;;;;;;;16.94;100.00;98663.33;1830990;77;20948;-70
2021/05/23 00:34:26;;;;;;;4.72;2.55;;;;;;;16.94;100.00;98668.66;1857898;76;20876;-69
2021/05/23 00:37:05;;;;;;;8.30;2.30;;;;;;;16.90;100.00;98658.59;1804385;77;21483;-69
2021/05/23 00:39:36;;;;;;;4.40;2.30;;;;;;;16.89;100.00;98660.85;1860031;76;21482;-70
2021/05/23 00:42:11;;;;;;;5.15;2.47;;;;;;;16.89;100.00;98654.66;1835767;76;21486;-69
2021/05/23 00:44:48;;;;;;;4.80;2.10;;;;;;;16.89;100.00;98657.32;1853530;77;21409;-69
2021/05/23 00:47:18;;;;;;;4.87;2.30;;;;;;;16.90;100.00;98661.72;1807980;78;21376;-69
2021/05/23 00:50:00;;;;;;;5.50;2.25;;;;;;;16.89;100.00;98652.86;1843772;77;20901;-69
2021/05/23 00:52:25;;;;;;;4.47;2.20;;;;;;;16.88;100.00;98659.58;1813128;77;21419;-69
2021/05/23 00:55:01;;;;;;;4.72;1.98;;;;;;;16.85;100.00;98649.91;1818840;78;21413;-69
2021/05/23 00:57:30;;;;;;;3.95;2.30;;;;;;;16.83;100.00;98657.56;1828812;76;20891;-68
2021/05/23 00:59:59;;;;;;;5.77;2.00;;;;;;;16.83;100.00;98654.90;1799306;78;21091;-69
2021/05/23 01:03:01;;;;;;;4.70;2.02;;;;;;;16.82;100.00;98656.69;1797076;78;20931;-69
2021/05/23 01:05:33;;;;;;;4.28;2.30;;;;;;;16.78;100.00;98657.73;1795937;78;21415;-70
2021/05/23 01:08:02;;;;;;;4.42;2.17;;;;;;;16.75;100.00;98648.54;1791702;76;21437;-70
2021/05/23 01:10:31;;;;;;;4.87;2.55;;;;;;;16.73;100.00;98644.20;1829407;76;21394;-70
2021/05/23 01:13:34;;;;;;;3.45;2.20;;;;;;;16.67;100.00;98654.63;1817173;76;21837;-70
2021/05/23 01:16:23;;;;;;;4.35;2.60;;;;;;;16.59;100.00;98656.69;1776826;78;20924;-70
2021/05/23 01:19:01;;;;;;;5.25;2.25;;;;;;;16.48;100.00;98670.38;1813997;76;21389;-70
2021/05/23 01:21:47;;;;;;;4.33;2.10;;;;;;;16.41;100.00;98664.00;1802930;78;26593;-69
2021/05/23 01:24:29;;;;;;;4.00;2.10;;;;;;;16.38;100.00;98665.86;1788868;76;20907;-70
2021/05/23 01:27:01;;;;;;;5.25;2.30;;;;;;;16.37;100.00;98657.47;1822767;76;21040;-70
2021/05/23 01:29:35;;;;;;;4.92;2.25;;;;;;;16.37;100.00;98660.59;1804423;76;21430;-70
2021/05/23 01:32:08;;;;;;;5.03;2.27;;;;;;;16.35;100.00;98661.11;1799478;78;21426;-70
2021/05/23 01:34:41;;;;;;;5.33;2.40;;;;;;;16.31;100.00;98664.34;1796937;78;21477;-69
2021/05/23 01:37:13;;;;;;;5.47;2.65;;;;;;;16.28;100.00;98663.59;1786173;79;21003;-70
2021/05/23 01:39:47;;;;;;;6.00;2.50;;;;;;;16.25;100.00;98671.23;1841536;77;21417;-70
2021/05/23 01:42:25;;;;;;;4.42;1.87;;;;;;;16.24;100.00;98674.81;1820781;77;21452;-70
2021/05/23 01:44:56;;;;;;;3.50;2.15;;;;;;;16.22;100.00;98679.33;1847774;76;21369;-69
2021/05/23 01:47:28;;;;;;;16.65;2.37;;;;;;;16.25;100.00;98679.67;1790223;78;20950;-69
2021/05/23 01:49:58;;;;;;;4.83;2.45;;;;;;;16.26;100.00;98684.08;1837074;77;21396;-69
2021/05/23 01:52:30;;;;;;;4.70;2.10;;;;;;;16.24;100.00;98681.47;1826875;77;21400;-70
2021/05/23 01:55:03;;;;;;;4.50;2.35;;;;;;;16.22;100.00;98692.63;1854834;77;20881;-69
2021/05/23 01:57:48;;;;;;;5.58;2.10;;;;;;;16.24;100.00;98704.55;1811249;78;20918;-69
2021/05/23 02:00:39;;;;;;;4.72;2.33;;;;;;;16.26;100.00;98704.03;1851621;77;20897;-69
2021/05/23 02:03:10;;;;;;;3.72;2.08;;;;;;;16.31;100.00;98709.59;1816823;78;21540;-69
2021/05/23 02:06:07;;;;;;;5.55;2.22;;;;;;;16.34;100.00;98713.94;1830021;77;21417;-70
2021/05/23 02:08:35;;;;;;;4.70;2.10;;;;;;;16.37;100.00;98717.36;1824570;78;20906;-70
2021/05/23 02:11:15;;;;;;;2.85;2.22;;;;;;;16.40;100.00;98723.03;1837784;77;21496;-70
2021/05/23 02:13:53;;;;;;;2.50;2.25;;;;;;;16.44;100.00;98723.79;1827031;77;20969;-69
2021/05/23 02:16:23;;;;;;;5.25;2.58;;;;;;;16.43;100.00;98728.24;1859189;75;21409;-70
2021/05/23 02:18:53;;;;;;;4.42;2.80;;;;;;;16.46;100.00;98726.80;1853498;77;21031;-70
2021/05/23 02:21:22;;;;;;;8.78;2.92;;;;;;;16.48;100.00;98732.06;1808721;77;21455;-69
2021/05/23 02:23:56;;;;;;;4.15;2.72;;;;;;;16.49;100.00;98733.80;1835027;78;21384;-69
2021/05/23 02:26:35;;;;;;;10.35;2.60;;;;;;;16.51;100.00;98739.94;1853512;77;21447;-69
2021/05/23 02:29:05;;;;;;;5.10;2.40;;;;;;;16.52;100.00;98745.21;1849461;77;20873;-70
2021/05/23 02:31:40;;;;;;;6.75;2.40;;;;;;;16.54;100.00;98754.01;1792742;77;21622;-70
2021/05/23 02:34:12;;;;;;;3.40;1.80;;;;;;;16.54;100.00;98760.67;1805741;77;21528;-70
2021/05/23 02:36:41;;;;;;;2.62;1.98;;;;;;;16.54;100.00;98763.33;1832710;76;20899;-70
2021/05/23 02:39:09;;;;;;;2.50;1.98;;;;;;;16.56;100.00;98766.84;1804805;78;21464;-70
2021/05/23 02:41:39;;;;;;;4.20;2.00;;;;;;;16.58;100.00;98761.45;1835746;78;21433;-70
2021/05/23 02:44:11;;;;;;;2.92;1.95;;;;;;;16.60;100.00;98764.47;1837167;77;21145;-69
2021/05/23 02:46:44;;;;;;;2.45;2.05;;;;;;;16.62;100.00;98767.95;1847128;77;20841;-70
2021/05/23 02:49:33;;;;;;;3.27;1.70;;;;;;;16.63;100.00;98768.35;1853662;77;21655;-68
2021/05/23 02:52:16;;;;;;;1.70;1.50;;;;;;;16.65;100.00;98767.87;1816429;77;21356;-69
2021/05/23 02:54:49;;;;;;;4.05;1.60;;;;;;;16.66;100.00;98774.93;1843276;76;21434;-69
2021/05/23 02:57:39;;;;;;;2.90;1.42;;;;;;;16.69;100.00;98787.27;1843511;77;21072;-69
2021/05/23 02:59:56;;;;;;;3.08;1.52;;;;;;;16.69;100.00;98787.27;1843418;77;21456;-68
2021/05/23 03:02:26;;;;;;;4.35;1.70;;;;;;;16.71;100.00;98783.22;1819744;77;20909;-69
2021/05/23 03:04:58;;;;;;;2.40;1.50;;;;;;;16.74;100.00;98786.63;1814778;76;21450;-69
2021/05/23 03:07:40;;;;;;;3.23;1.47;;;;;;;16.75;100.00;98784.38;1835388;77;21454;-70
2021/05/23 03:10:16;;;;;;;3.62;1.30;;;;;;;16.77;100.00;98785.19;1836885;77;22168;-70
2021/05/23 03:12:52;;;;;;;2.47;1.37;;;;;;;16.80;100.00;98794.40;1850778;77;21482;-69
2021/05/23 03:15:27;;;;;;;2.87;1.50;;;;;;;16.84;100.00;98793.36;1857487;76;20984;-70
2021/05/23 03:18:03;;;;;;;1.80;1.40;;;;;;;16.87;100.00;98795.04;1826136;77;21408;-69
2021/05/23 03:20:35;;;;;;;2.45;1.50;;;;;;;16.91;100.00;98801.98;1837273;78;21472;-70
2021/05/23 03:23:08;;;;;;;5.60;1.45;;;;;;;16.93;100.00;98800.14;1845204;76;21025;-70
2021/05/23 03:25:55;;;;;;;;;;;;;;;;;;;;;
2021/05/23 03:28:17;;;;;;;3.60;1.45;;;;;;;16.97;100.00;98803.09;1801761;77;20956;-69
2021/05/23 03:31:04;;;;;;;;;;;;;;;;;;;;;
2021/05/23 03:33:27;;;;;;;3.98;1.40;;;;;;;17.03;100.00;98813.98;1812496;77;21030;-69
2021/05/23 03:36:00;;;;;;;6.25;1.62;;;;;;;17.03;100.00;98820.64;1841130;76;21381;-68
2021/05/23 03:38:31;;;;;;;3.08;1.27;;;;;;;17.03;100.00;98818.88;1816475;77;20954;-69
2021/05/23 03:40:57;;;;;;;4.45;1.30;;;;;;;17.06;100.00;98817.90;1803961;78;21427;-67
2021/05/23 03:43:25;;;;;;;1.60;1.40;;;;;;;17.08;100.00;98820.91;1826312;77;21034;-66
2021/05/23 03:46:01;;;;;;;1.90;1.27;;;;;;;17.08;100.00;98822.24;1745380;80;21463;-67
2021/05/23 03:48:30;;;;;;;2.65;1.17;;;;;;;17.11;100.00;98831.92;1774002;79;21783;-67
2021/05/23 03:50:58;;;;;;;1.25;1.15;;;;;;;17.11;100.00;98836.78;1798035;79;20981;-67
2021/05/23 03:53:27;;;;;;;2.90;1.42;;;;;;;17.12;100.00;98839.86;1823771;77;20937;-68
2021/05/23 03:55:55;;;;;;;9.85;1.40;;;;;;;17.14;100.00;98843.80;1835815;77;20965;-67
2021/05/23 03:58:24;;;;;;;6.47;1.47;;;;;;;17.17;100.00;98839.68;1772783;80;21476;-69
2021/05/23 04:01:01;;;;;;;3.47;1.60;;;;;;;17.18;100.00;98848.08;1772192;80;21408;-70
2021/05/23 04:03:34;;;;;;;2.08;1.50;;;;;;;17.21;100.00;98847.50;1802874;79;20861;-69
2021/05/23 04:06:04;;;;;;;3.95;1.47;;;;;;;17.22;100.00;98846.58;1795978;79;21497;-69
2021/05/23 04:08:32;;;;;;;3.72;1.25;;;;;;;17.25;100.00;98845.59;1845205;77;20882;-69
2021/05/23 04:11:09;;;;;;;2.12;1.30;;;;;;;17.26;100.00;98846.86;1827960;77;20865;-69
2021/05/23 04:13:36;;;;;;;1.72;1.30;;;;;;;17.27;100.00;98861.93;1822828;77;21627;-70
2021/05/23 04:16:06;;;;;;;5.00;1.17;;;;;;;17.26;100.00;98861.99;1824403;78;20930;-70
2021/05/23 04:18:40;;;;;;;5.47;1.57;;;;;;;17.26;100.00;98861.99;1831768;77;20906;-70
2021/05/23 04:21:09;;;;;;;3.70;1.22;;;;;;;17.24;100.00;98870.52;1824455;77;21417;-70
2021/05/23 04:23:37;;;;;;;3.10;1.57;;;;;;;17.22;100.00;98871.03;1817858;77;20909;-69
2021/05/23 04:26:06;;;;;;;7.22;1.42;;;;;;;17.16;100.00;98884.59;1774585;80;21168;-69
2021/05/23 04:28:35;;;;;;;3.83;1.30;;;;;;;17.12;100.00;98882.96;1816357;77;21412;-70
2021/05/23 04:31:03;;;;;;;5.08;1.42;;;;;;;17.09;100.00;98886.61;1830525;77;20933;-69
2021/05/23 04:33:30;;;;;;;6.65;1.50;;;;;;;17.09;100.00;98896.40;1818548;77;20921;-69
2021/05/23 04:35:58;;;;;;;10.20;2.35;;;;;;;17.09;100.00;98896.40;1843689;77;21590;-71
2021/05/23 04:38:25;;;;;;;3.12;1.87;;;;;;;17.11;100.00;98895.88;1802604;77;21800;-69
2021/05/23 04:40:53;;;;;;;8.45;1.67;;;;;;;17.13;100.00;98898.90;1825284;77;20861;-69
2021/05/23 04:43:23;;;;;;;2.75;1.52;;;;;;;17.14;100.00;98900.63;1818399;77;21449;-68
2021/05/23 04:45:52;;;;;;;2.02;1.60;;;;;;;17.15;100.00;98904.17;1829759;77;20928;-70
2021/05/23 04:48:21;;;;;;;5.33;2.12;;;;;;;17.18;100.00;98908.05;1803028;78;21398;-69
2021/05/23 04:50:49;;;;;;;2.92;1.85;;;;;;;17.18;100.00;98908.05;1845910;77;20961;-70
2021/05/23 04:53:19;;;;;;;3.08;1.67;;;;;;;17.20;100.00;98915.06;1845708;77;21002;-69
2021/05/23 04:55:47;;;;;;;6.35;1.90;;;;;;;17.20;100.00;98915.06;1847519;77;20846;-71
2021/05/23 04:58:14;;;;;;;4.90;1.85;;;;;;;17.24;100.00;98923.83;1830390;77;21419;-71
2021/05/23 05:00:42;;;;;;;3.95;2.10;;;;;;;17.29;100.00;98929.86;1845865;77;21412;-69
2021/05/23 05:03:10;;;;;;;4.47;2.00;;;;;;;17.36;100.00;98927.83;1850755;77;20990;-69
2021/05/23 05:05:38;;;;;;;3.05;1.70;;;;;;;17.50;100.00;98922.84;1846932;76;20903;-69
2021/05/23 05:08:07;;;;;;;3.35;1.60;;;;;;;17.50;100.00;98922.84;1844674;76;21377;-69
2021/05/23 05:10:35;;;;;;;2.42;1.87;;;;;;;17.59;100.00;98935.41;1845719;77;20934;-70
2021/05/23 05:13:03;;;;;;;2.40;1.57;;;;;;;17.67;100.00;98939.15;1846747;76;21460;-70
2021/05/23 05:15:32;;;;;;;2.47;1.50;;;;;;;17.76;100.00;98937.92;1844824;77;20945;-70
2021/05/23 05:18:00;;;;;;;3.12;1.37;;;;;;;17.85;100.00;98950.44;1848497;77;21480;-71
2021/05/23 05:20:28;;;;;;;2.55;1.50;;;;;;;17.96;100.00;98948.69;1841175;77;20917;-70
2021/05/23 05:22:56;;;;;;;3.22;1.90;;;;;;;18.04;100.00;98957.30;1846393;77;20982;-70
2021/05/23 05:25:24;;;;;;;4.72;1.80;;;;;;;18.13;100.00;98964.94;1847532;76;20926;-70
2021/05/23 05:27:57;;;;;;;4.92;2.35;;;;;;;18.18;100.00;98961.62;1803701;77;21726;-70
2021/05/23 05:30:23;;;;;;;8.23;3.12;;;;;;;18.26;100.00;98965.31;1835108;77;20847;-70
2021/05/23 05:32:53;;;;;;;6.85;2.70;;;;;;;18.31;100.00;98966.00;1846282;77;20874;-70
2021/05/23 05:35:21;;;;;;;4.75;2.27;;;;;;;18.35;100.00;98974.76;1844981;77;21448;-70
2021/05/23 05:37:49;;;;;;;3.17;1.82;;;;;;;18.37;100.00;98964.42;1845850;77;21436;-70
2021/05/23 05:40:18;;;;;;;6.15;2.50;;;;;;;18.43;100.00;98958.83;1844771;77;21023;-65
2021/05/23 05:42:47;;;;;;;6.87;2.58;;;;;;;18.47;100.00;98963.61;1848613;77;20930;-68
2021/05/23 05:45:15;;;;;;;3.42;2.42;;;;;;;18.50;100.00;98967.02;1831377;77;21503;-69
2021/05/23 05:47:43;;;;;;;6.62;1.82;;;;;;;18.57;100.00;98962.30;1832102;78;21498;-69
2021/05/23 05:50:11;;;;;;;4.78;1.85;;;;;;;18.64;100.00;98961.14;1842865;77;20896;-70
2021/05/23 05:52:39;;;;;;;4.22;1.70;;;;;;;18.69;100.00;98956.94;1860070;76;21011;-69
2021/05/23 05:55:08;;;;;;;3.50;1.60;;;;;;;18.74;100.00;98957.14;1845803;76;20920;-69
2021/05/23 05:57:36;;;;;;;4.20;2.00;;;;;;;18.81;100.00;98957.28;1825915;78;21447;-66
2021/05/23 06:00:11;;;;;;;2.90;1.85;;;;;;;18.85;100.00;98949.54;1848263;76;21023;-65
2021/05/23 06:02:43;;;;;;;2.50;1.20;;;;;;;18.93;100.00;98954.59;1812900;78;20850;-66
2021/05/23 06:05:12;;;;;;;3.72;1.80;;;;;;;19.03;100.00;98957.27;1801152;78;21458;-66
2021/05/23 06:07:40;;;;;;;3.17;1.42;;;;;;;19.13;100.00;98959.06;1802330;78;21379;-67
2021/05/23 06:10:09;;;;;;;2.55;1.60;;;;;;;19.17;100.00;98957.52;1798923;79;21053;-68
2021/05/23 06:12:37;;;;;;;3.12;1.75;;;;;;;19.19;100.00;98963.67;1811110;78;20981;-67
2021/05/23 06:15:06;;;;;;;6.00;1.45;;;;;;;19.22;100.00;98961.33;1831806;78;20894;-69
2021/05/23 06:17:35;;;;;;;7.50;1.50;;;;;;;19.28;100.00;98966.41;1831816;78;21719;-68
2021/05/23 06:20:06;;;;;;;6.62;1.77;;;;;;;19.38;100.00;98968.20;1821028;78;20857;-67
2021/05/23 06:22:34;;;;;;;3.87;1.72;;;;;;;19.52;100.00;98982.33;1826350;78;20841;-67
2021/05/23 06:25:03;;;;;;;6.40;1.90;;;;;;;19.64;100.00;98976.45;1803228;78;20897;-68
2021/05/23 06:27:31;;;;;;;3.50;1.75;;;;;;;19.78;100.00;98970.86;1830218;76;20899;-65
2021/05/23 06:29:59;;;;;;;2.33;1.60;;;;;;;19.89;100.00;98968.19;1829035;76;21011;-67
2021/05/23 06:32:27;;;;;;;4.70;2.10;;;;;;;19.96;100.00;98966.48;1829232;77;20884;-68
2021/05/23 06:34:55;;;;;;;2.40;1.55;;;;;;;20.04;100.00;98970.14;1823063;76;21457;-67
2021/05/23 06:37:24;;;;;;;12.53;2.40;;;;;;;20.11;100.00;98971.59;1816097;76;20941;-68
2021/05/23 06:39:53;;;;;;;3.85;1.47;;;;;;;20.18;100.00;98974.37;1817248;76;21485;-69
2021/05/23 06:42:23;;;;;;;3.67;1.35;;;;;;;20.25;100.00;98968.24;1806163;77;21116;-66
2021/05/23 06:44:51;;;;;;;2.60;1.67;;;;;;;20.29;100.00;98965.34;1827833;77;21427;-67
2021/05/23 06:47:19;;;;;;;2.10;1.50;;;;;;;20.38;100.00;98965.40;1824595;77;20868;-67
2021/05/23 06:49:47;;;;;;;2.45;1.50;;;;;;;20.51;100.00;98965.70;1814972;77;20912;-67
2021/05/23 06:52:14;;;;;;;2.55;1.50;;;;;;;20.62;100.00;98960.67;1841851;76;20858;-66
2021/05/23 06:54:41;;;;;;;1.75;1.40;;;;;;;20.74;100.00;98960.92;1829624;76;21018;-67
2021/05/23 06:57:09;;;;;;;3.00;1.40;;;;;;;20.84;100.00;98960.48;1838223;77;21598;-67
2021/05/23 06:59:37;;;;;;;2.67;1.32;;;;;;;20.92;100.00;98960.96;1837751;76;20913;-66
2021/05/23 07:02:04;;;;;;;2.98;1.77;;;;;;;21.01;100.00;98968.53;1763820;80;21473;-70
2021/05/23 07:04:33;;;;;;;1.82;1.37;;;;;;;21.12;100.00;98966.64;1801426;79;20956;-68
2021/05/23 07:07:02;;;;;;;3.67;1.50;;;;;;;21.22;100.00;98967.89;1800790;78;21022;-68
2021/05/23 07:09:29;;;;;;;2.30;1.25;;;;;;;21.32;100.00;98970.55;1797673;78;20936;-68
2021/05/23 07:11:57;;;;;;;1.57;1.10;;;;;;;21.40;100.00;98970.15;1829774;76;20931;-68
2021/05/23 07:14:26;;;;;;;1.82;1.40;;;;;;;21.47;100.00;98968.88;1772835;79;20925;-68
2021/05/23 07:16:54;;;;;;;3.75;1.30;;;;;;;21.55;100.00;98972.02;1818535;78;20893;-67
2021/05/23 07:19:23;;;;;;;1.80;1.15;;;;;;;21.61;100.00;98971.69;1826567;78;21031;-67
2021/05/23 07:21:52;;;;;;;2.55;1.05;;;;;;;21.69;99.13;98970.80;1771018;81;21475;-67
2021/05/23 07:24:20;;;;;;;4.75;1.20;;;;;;;21.81;98.49;98975.52;1824820;77;20877;-67
2021/05/23 07:26:49;;;;;;;2.47;1.10;;;;;;;21.90;96.63;98974.16;1821382;77;20901;-67
2021/05/23 07:29:16;;;;;;;4.25;0.85;;;;;;;22.00;94.18;98967.32;1815669;76;20963;-68
2021/05/23 07:31:45;;;;;;;8.25;1.70;;;;;;;22.11;93.92;98966.28;1821207;77;21038;-68
2021/05/23 07:34:13;;;;;;;3.33;0.88;;;;;;;22.19;91.46;98971.22;1821513;77;21027;-67
2021/05/23 07:36:42;;;;;;;4.92;0.90;;;;;;;22.25;89.80;98965.05;1826553;77;21416;-67
2021/05/23 07:39:10;;;;;;;2.35;1.07;;;;;;;22.35;89.77;98969.91;1826411;77;21495;-68
2021/05/23 07:41:37;;;;;;;1.92;0.80;;;;;;;22.42;88.56;98972.16;1821009;77;20924;-67
2021/05/23 07:44:06;;;;;;;3.55;0.80;;;;;;;22.53;87.54;98969.72;1824187;77;21056;-66
2021/05/23 07:46:34;;;;;;;7.03;0.75;;;;;;;22.62;80.22;98973.22;1822166;77;20911;-67
2021/05/23 07:49:02;;;;;;;3.10;0.70;;;;;;;22.71;77.03;98969.64;1823375;77;20845;-68
2021/05/23 07:51:29;;;;;;;2.08;0.82;;;;;;;22.79;72.67;98966.89;1811710;77;21433;-67
2021/05/23 07:53:58;;;;;;;2.20;1.20;;;;;;;22.89;69.01;98971.28;1810622;78;20924;-68
2021/05/23 07:56:27;;;;;;;3.22;1.10;;;;;;;22.98;67.24;98961.80;1813102;78;21033;-66
2021/05/23 07:58:54;;;;;;;3.02;1.00;;;;;;;23.06;66.21;98963.55;1798866;79;20932;-67
2021/05/23 08:01:23;;;;;;;2.50;0.80;;;;;;;23.13;63.67;98967.59;1800102;79;20857;-67
2021/05/23 08:03:51;;;;;;;2.70;0.98;;;;;;;23.18;61.53;98970.91;1799384;79;20928;-66
2021/05/23 08:06:19;;;;;;;2.25;0.68;;;;;;;23.27;63.39;98972.17;1794262;79;20960;-64
2021/05/23 08:08:48;;;;;;;1.85;0.78;;;;;;;23.34;62.61;98973.05;1798704;79;21031;-66
2021/05/23 08:11:16;;;;;;;0.90;0.60;;;;;;;23.42;62.02;98972.11;1801998;79;21027;-76
2021/05/23 08:13:45;;;;;;;5.37;1.20;;;;;;;23.50;61.12;98971.16;1803502;79;20885;-76
2021/05/23 08:16:14;;;;;;;2.85;0.90;;;;;;;23.61;60.84;98969.66;1773184;79;20957;-77
2021/05/23 08:18:46;;;;;;;1.72;0.75;;;;;;;23.71;60.32;98979.79;1779885;80;21447;-71
2021/05/23 08:21:15;;;;;;;4.03;0.80;;;;;;;23.87;58.89;98975.65;1777592;80;21787;-73
2021/05/23 08:23:43;;;;;;;2.75;0.90;;;;;;;23.94;58.79;98977.47;1779068;79;20936;-70
2021/05/23 08:26:11;;;;;;;1.20;0.75;;;;;;;24.00;59.04;98977.95;1793886;79;20905;-69
2021/05/23 08:28:40;;;;;;;2.00;1.00;;;;;;;24.13;56.40;98982.11;1775367;79;20949;-69
2021/05/23 08:31:07;;;;;;;1.85;0.90;;;;;;;24.21;54.88;98980.27;1808006;78;20944;-70
2021/05/23 08:33:37;;;;;;;1.02;0.80;;;;;;;24.26;53.74;98977.66;1800758;78;21419;-70
2021/05/23 08:36:07;;;;;;;1.87;1.00;;;;;;;24.33;54.57;98974.98;1777134;79;21479;-70
2021/05/23 08:38:34;;;;;;;1.50;0.80;;;;;;;24.45;55.63;98966.08;1807503;77;21380;-70
2021/05/23 08:41:03;;;;;;;8.08;1.00;;;;;;;24.53;54.39;98969.63;1780714;79;20961;-71
2021/05/23 08:43:32;;;;;;;2.55;0.88;;;;;;;24.56;53.49;98969.91;1785780;80;20933;-68
2021/05/23 08:46:01;;;;;;;4.67;0.85;;;;;;;24.60;54.81;98968.28;1806900;78;21030;-67
2021/05/23 08:48:29;;;;;;;1.47;0.70;;;;;;;24.66;54.96;98968.36;1821124;77;20917;-67
2021/05/23 08:50:57;;;;;;;8.38;1.20;;;;;;;24.75;54.75;98969.09;1818020;77;20931;-67
2021/05/23 08:53:26;;;;;;;4.67;0.68;;;;;;;24.79;53.26;98966.08;1814494;78;20935;-67
2021/05/23 08:55:59;;;;;;;9.98;1.30;;;;;;;24.84;51.00;98973.87;1821603;77;20948;-73
2021/05/23 08:58:27;;;;;;;1.60;0.90;;;;;;;24.89;52.21;98969.03;1827326;77;21030;-68
2021/05/23 09:00:55;;;;;;;1.00;0.65;;;;;;;24.96;49.80;98974.39;1831318;77;20912;-68
2021/05/23 09:03:23;;;;;;;1.12;0.60;;;;;;;24.99;48.11;98969.30;1828311;77;20939;-69
2021/05/23 09:05:56;;;;;;;1.42;0.70;;;;;;;24.94;45.94;98967.36;1826890;76;21019;-70
2021/05/23 09:08:28;;;;;;;5.12;1.30;;;;;;;24.86;46.27;98963.84;1830580;78;21394;-71
2021/05/23 09:11:01;;;;;;;5.75;1.52;;;;;;;24.84;45.43;98964.42;1830964;77;21594;-71
2021/05/23 09:13:32;;;;;;;4.37;1.40;;;;;;;24.79;44.44;98957.13;1831173;77;20880;-69
2021/05/23 09:16:09;;;;;;;5.67;1.00;;;;;;;24.77;45.40;98963.97;1831239;78;20888;-69
2021/05/23 09:18:55;;;;;;;6.12;1.45;;;;;;;24.78;45.01;98961.66;1831095;77;20874;-70
2021/05/23 09:21:29;;;;;;;2.37;0.82;;;;;;;24.84;45.76;98953.63;1830810;77;21477;-70
2021/05/23 09:23:59;;;;;;;1.98;0.68;;;;;;;24.88;44.96;98974.05;1831050;77;20976;-70
2021/05/23 09:26:33;;;;;;;2.22;0.70;;;;;;;24.93;43.32;98975.08;1830944;77;20983;-70
2021/05/23 09:29:06;;;;;;;4.87;0.70;;;;;;;24.91;42.91;98971.63;1830998;78;20919;-70
2021/05/23 09:31:34;;;;;;;2.12;0.85;;;;;;;24.99;42.52;98967.95;1830953;78;20884;-71
2021/05/23 09:34:02;;;;;;;0.93;0.70;;;;;;;25.13;43.14;98967.05;1830627;77;21391;-71
2021/05/23 09:36:30;;;;;;;0.60;0.50;;;;;;;25.28;42.78;98966.84;1830655;77;21834;-70
2021/05/23 09:39:04;;;;;;;1.60;0.93;;;;;;;25.39;42.34;98970.16;1801069;78;21489;-70
2021/05/23 09:41:41;;;;;;;1.70;1.02;;;;;;;25.44;42.40;98978.80;1830810;78;20892;-70
2021/05/23 09:44:18;;;;;;;1.57;0.70;;;;;;;25.54;43.36;98966.86;1829307;77;21541;-71
2021/05/23 09:47:09;;;;;;;2.17;0.70;;;;;;;25.70;43.29;98975.20;1830817;78;21477;-70
2021/05/23 09:49:41;;;;;;;1.72;0.70;;;;;;;25.81;41.71;98962.27;1830534;77;21059;-70
2021/05/23 09:52:12;;;;;;;2.40;0.62;;;;;;;25.88;40.96;98961.34;1825405;77;20845;-71
2021/05/23 09:54:49;;;;;;;1.85;0.57;;;;;;;25.93;40.91;98961.88;1831211;77;20900;-71
2021/05/23 09:57:20;;;;;;;3.30;0.70;;;;;;;25.97;42.06;98962.03;1831523;77;20896;-70
2021/05/23 10:00:00;;;;;;;2.33;0.90;;;;;;;25.97;42.34;98960.68;1831313;77;20837;-71
2021/05/23 10:02:28;;;;;;;3.55;0.72;;;;;;;25.93;42.16;98962.74;1826906;77;21473;-71
2021/05/23 10:05:03;;;;;;;1.82;0.70;;;;;;;25.97;41.87;98969.66;1830504;77;20900;-71
2021/05/23 10:07:34;;;;;;;1.40;0.65;;;;;;;25.93;41.72;98955.98;1831063;78;20868;-71
2021/05/23 10:10:03;;;;;;;1.05;0.60;;;;;;;25.94;41.36;98953.66;1831184;77;20944;-71
2021/05/23 10:12:34;;;;;;;2.00;0.70;;;;;;;26.00;42.92;98953.22;1830536;78;20884;-72
2021/05/23 10:15:05;;;;;;;1.35;0.70;;;;;;;26.10;43.53;98949.39;1830628;78;21383;-70
2021/05/23 10:17:37;;;;;;;0.68;0.60;;;;;;;26.20;41.77;98949.58;1831055;77;20880;-70
2021/05/23 10:20:10;;;;;;;1.47;0.80;;;;;;;26.24;41.83;98953.78;1831322;78;20872;-69
2021/05/23 10:22:39;;;;;;;2.85;0.85;;;;;;;26.30;41.79;98952.84;1830953;77;21075;-70
2021/05/23 10:25:12;;;;;;;1.42;0.70;;;;;;;26.46;41.49;98959.37;1831094;77;20888;-70
2021/05/23 10:27:45;;;;;;;2.17;0.57;;;;;;;26.54;39.57;98952.93;1830950;77;21032;-70
2021/05/23 10:30:14;;;;;;;1.10;0.70;;;;;;;26.60;40.28;98948.90;1830641;77;20849;-70
2021/05/23 10:32:43;;;;;;;0.93;0.60;;;;;;;26.65;40.99;98948.93;1830674;77;20884;-71
2021/05/23 10:35:18;;;;;;;1.07;0.70;;;;;;;26.76;40.46;98942.70;1830914;77;20908;-69
2021/05/23 10:37:47;;;;;;;2.47;0.80;;;;;;;26.93;41.42;98940.06;1831144;77;20899;-70
2021/05/23 10:40:24;;;;;;;3.42;0.82;;;;;;;27.07;39.42;98947.20;1831303;77;21013;-70
2021/05/23 10:42:54;;;;;;;0.85;0.60;;;;;;;27.00;38.44;98937.33;1830182;77;20888;-70
2021/05/23 10:45:32;;;;;;;1.62;0.70;;;;;;;26.99;37.33;98942.86;1831212;77;20877;-70
2021/05/23 10:48:13;;;;;;;1.70;0.50;;;;;;;26.85;36.98;98930.32;1831186;78;20892;-70
2021/05/23 10:50:44;;;;;;;0.50;0.50;;;;;;;26.86;36.83;98932.91;1831396;77;20911;-70
2021/05/23 10:53:12;;;;;;;6.45;0.60;;;;;;;26.89;35.15;98935.88;1831120;77;20975;-69
2021/05/23 10:55:52;;;;;;;4.45;3.85;;;;;;;26.82;34.66;98933.26;1831004;77;21410;-70
2021/05/23 10:58:26;;;;;;;10.45;1.32;;;;;;;26.79;35.33;98939.77;1830730;77;20907;-70
2021/05/23 11:00:58;;;;;;;2.62;0.88;;;;;;;26.90;36.04;98931.70;1830873;77;20908;-70
2021/05/23 11:03:27;;;;;;;1.42;0.50;;;;;;;27.04;36.26;98942.02;1830838;78;20900;-70
2021/05/23 11:06:10;;;;;;;1.52;0.50;;;;;;;27.15;35.34;98940.70;1830977;77;21769;-70
2021/05/23 11:08:39;;;;;;;1.50;0.50;;;;;;;27.27;36.07;98935.68;1831343;77;21383;-68
2021/05/23 11:11:09;;;;;;;1.90;0.75;;;;;;;27.33;35.76;98932.98;1831574;78;20920;-70
2021/05/23 11:13:39;;;;;;;1.47;0.70;;;;;;;27.38;36.71;98938.41;1827077;77;20928;-70
2021/05/23 11:16:19;;;;;;;2.33;1.85;;;;;;;27.46;36.15;98937.84;1830697;78;20903;-69
2021/05/23 11:18:50;;;;;;;6.33;1.42;;;;;;;27.63;36.67;98929.77;1830840;78;21335;-72
2021/05/23 11:21:18;;;;;;;7.70;1.00;;;;;;;27.71;35.08;98931.37;1830716;77;20876;-66
2021/05/23 11:23:50;;;;;;;4.30;0.80;;;;;;;27.76;35.44;98924.59;1830133;77;20891;-65
2021/05/23 11:26:19;;;;;;;1.05;0.62;;;;;;;27.86;36.42;98922.00;1830140;78;20857;-64
2021/05/23 11:28:58;;;;;;;2.85;0.98;;;;;;;27.98;35.99;98923.75;1830193;77;20896;-65
2021/05/23 11:31:36;;;;;;;3.98;0.72;;;;;;;28.04;34.91;98931.88;1830141;77;21046;-65
2021/05/23 11:34:05;;;;;;;2.12;0.72;;;;;;;27.99;33.50;98924.13;1830111;78;20880;-64
2021/05/23 11:36:35;;;;;;;0.93;0.60;;;;;;;28.03;34.15;98917.95;1830143;77;20888;-65
2021/05/23 11:39:08;;;;;;;3.33;1.00;;;;;;;28.06;32.68;98919.06;1830074;77;21416;-65
2021/05/23 11:41:45;;;;;;;3.02;0.75;;;;;;;28.03;32.60;98913.40;1830130;77;20844;-64
2021/05/23 11:44:13;;;;;;;2.47;0.68;;;;;;;27.98;32.65;98921.05;1829954;77;21394;-65
2021/05/23 11:46:54;;;;;;;9.90;0.90;;;;;;;27.95;34.10;98921.30;1830007;77;21518;-65
2021/05/23 11:49:26;;;;;;;1.65;0.70;;;;;;;28.03;35.02;98932.38;1830174;77;20892;-65
2021/05/23 11:52:04;;;;;;;;;;;;;;;28.15;34.84;98924.59;1832779;77;20892;-64